<?xml version="1.0" encoding="UTF-8" standalone="no" ?><gpx xmlns="http://www.topografix.com/GPX/1/1" xmlns:gpxx="http://www.garmin.com/xmlschemas/GpxExtensions/v3" xmlns:wptx1="http://www.garmin.com/xmlschemas/WaypointExtension/v1" xmlns:gpxtpx="http://www.garmin.com/xmlschemas/TrackPointExtension/v1" creator="Dakota 20" version="1.1" xmlns:xsi="http://www.w3.org/2001/XMLSchema-instance" xsi:schemaLocation="http://www.topografix.com/GPX/1/1 http://www.topografix.com/GPX/1/1/gpx.xsd http://www.garmin.com/xmlschemas/GpxExtensions/v3 http://www8.garmin.com/xmlschemas/GpxExtensionsv3.xsd http://www.garmin.com/xmlschemas/WaypointExtension/v1 http://www8.garmin.com/xmlschemas/WaypointExtensionv1.xsd http://www.garmin.com/xmlschemas/TrackPointExtension/v1 http://www.garmin.com/xmlschemas/TrackPointExtensionv1.xsd"><metadata><link href="http://www.garmin.com"><text>Garmin International</text></link><time>2014-11-12T14:31:14Z</time></metadata><trk><name>Current Track: 12 NOV 2014 10:02</name><extensions><gpxx:TrackExtension><gpxx:DisplayColor>Cyan</gpxx:DisplayColor></gpxx:TrackExtension></extensions><trkseg><trkpt lat="51.7206977215" lon="-1.9701277837"><ele>114.53</ele><time>2014-11-12T10:02:09Z</time></trkpt><trkpt lat="51.7207025830" lon="-1.9701320585"><ele>113.57</ele><time>2014-11-12T10:02:23Z</time></trkpt><trkpt lat="51.7207032535" lon="-1.9701344054"><ele>113.57</ele><time>2014-11-12T10:02:40Z</time></trkpt><trkpt lat="51.7207014933" lon="-1.9701390993"><ele>113.57</ele><time>2014-11-12T10:03:02Z</time></trkpt><trkpt lat="51.7207021639" lon="-1.9701376744"><ele>112.13</ele><time>2014-11-12T10:03:15Z</time></trkpt><trkpt lat="51.7207810376" lon="-1.9699987024"><ele>113.09</ele><time>2014-11-12T10:03:30Z</time></trkpt><trkpt lat="51.7208217736" lon="-1.9698573835"><ele>112.61</ele><time>2014-11-12T10:03:41Z</time></trkpt><trkpt lat="51.7207454983" lon="-1.9697465748"><ele>113.57</ele><time>2014-11-12T10:03:52Z</time></trkpt><trkpt lat="51.7207227834" lon="-1.9697099458"><ele>113.57</ele><time>2014-11-12T10:03:55Z</time></trkpt><trkpt lat="51.7206828855" lon="-1.9695064332"><ele>113.09</ele><time>2014-11-12T10:04:09Z</time></trkpt><trkpt lat="51.7206546385" lon="-1.9693644438"><ele>113.09</ele><time>2014-11-12T10:04:20Z</time></trkpt><trkpt lat="51.7206008267" lon="-1.9693446625"><ele>113.09</ele><time>2014-11-12T10:04:26Z</time></trkpt><trkpt lat="51.7205463443" lon="-1.9693854824"><ele>113.09</ele><time>2014-11-12T10:04:34Z</time></trkpt><trkpt lat="51.7203978170" lon="-1.9694373664"><ele>112.61</ele><time>2014-11-12T10:04:50Z</time></trkpt><trkpt lat="51.7203580029" lon="-1.9694598299"><ele>113.09</ele><time>2014-11-12T10:04:55Z</time></trkpt><trkpt lat="51.7202326935" lon="-1.9696086925"><ele>113.09</ele><time>2014-11-12T10:05:10Z</time></trkpt><trkpt lat="51.7202182766" lon="-1.9696345925"><ele>113.57</ele><time>2014-11-12T10:05:12Z</time></trkpt><trkpt lat="51.7200888600" lon="-1.9698001351"><ele>113.57</ele><time>2014-11-12T10:05:27Z</time></trkpt><trkpt lat="51.7200034484" lon="-1.9699869677"><ele>113.57</ele><time>2014-11-12T10:05:41Z</time></trkpt><trkpt lat="51.7199010216" lon="-1.9701768178"><ele>113.57</ele><time>2014-11-12T10:05:58Z</time></trkpt><trkpt lat="51.7198027018" lon="-1.9703197293"><ele>113.57</ele><time>2014-11-12T10:06:13Z</time></trkpt><trkpt lat="51.7197415140" lon="-1.9704709388"><ele>113.57</ele><time>2014-11-12T10:06:26Z</time></trkpt><trkpt lat="51.7197095789" lon="-1.9705339707"><ele>114.05</ele><time>2014-11-12T10:06:32Z</time></trkpt><trkpt lat="51.7196520790" lon="-1.9705239963"><ele>113.09</ele><time>2014-11-12T10:06:39Z</time></trkpt><trkpt lat="51.7195809167" lon="-1.9704141095"><ele>113.09</ele><time>2014-11-12T10:06:52Z</time></trkpt><trkpt lat="51.7195544299" lon="-1.9704306219"><ele>112.61</ele><time>2014-11-12T10:06:57Z</time></trkpt><trkpt lat="51.7194123566" lon="-1.9705502316"><ele>113.09</ele><time>2014-11-12T10:07:06Z</time></trkpt><trkpt lat="51.7193127796" lon="-1.9707575999"><ele>113.57</ele><time>2014-11-12T10:07:21Z</time></trkpt><trkpt lat="51.7192396056" lon="-1.9708416704"><ele>113.09</ele><time>2014-11-12T10:07:29Z</time></trkpt><trkpt lat="51.7192150466" lon="-1.9709743559"><ele>113.09</ele><time>2014-11-12T10:07:36Z</time></trkpt><trkpt lat="51.7191450577" lon="-1.9712154195"><ele>113.57</ele><time>2014-11-12T10:07:48Z</time></trkpt><trkpt lat="51.7190558743" lon="-1.9713923614"><ele>113.09</ele><time>2014-11-12T10:08:00Z</time></trkpt><trkpt lat="51.7190046608" lon="-1.9714554772"><ele>113.09</ele><time>2014-11-12T10:08:06Z</time></trkpt><trkpt lat="51.7189836223" lon="-1.9715864863"><ele>113.09</ele><time>2014-11-12T10:08:13Z</time></trkpt><trkpt lat="51.7189521063" lon="-1.9716906734"><ele>112.61</ele><time>2014-11-12T10:08:19Z</time></trkpt><trkpt lat="51.7189081851" lon="-1.9717579801"><ele>113.57</ele><time>2014-11-12T10:08:24Z</time></trkpt><trkpt lat="51.7188011482" lon="-1.9719796814"><ele>113.57</ele><time>2014-11-12T10:08:37Z</time></trkpt><trkpt lat="51.7187370267" lon="-1.9721270353"><ele>113.57</ele><time>2014-11-12T10:08:45Z</time></trkpt><trkpt lat="51.7185290717" lon="-1.9721785840"><ele>113.09</ele><time>2014-11-12T10:09:01Z</time></trkpt><trkpt lat="51.7184004933" lon="-1.9722991996"><ele>113.09</ele><time>2014-11-12T10:09:14Z</time></trkpt><trkpt lat="51.7182378843" lon="-1.9723629858"><ele>113.09</ele><time>2014-11-12T10:09:27Z</time></trkpt><trkpt lat="51.7182151694" lon="-1.9723621476"><ele>113.09</ele><time>2014-11-12T10:09:29Z</time></trkpt><trkpt lat="51.7180516385" lon="-1.9724270236"><ele>114.05</ele><time>2014-11-12T10:09:43Z</time></trkpt><trkpt lat="51.7180425860" lon="-1.9724266883"><ele>114.05</ele><time>2014-11-12T10:09:44Z</time></trkpt><trkpt lat="51.7179996707" lon="-1.9725504052"><ele>114.05</ele><time>2014-11-12T10:09:53Z</time></trkpt><trkpt lat="51.7180199549" lon="-1.9727255870"><ele>114.53</ele><time>2014-11-12T10:10:04Z</time></trkpt><trkpt lat="51.7180228885" lon="-1.9728118367"><ele>115.01</ele><time>2014-11-12T10:10:09Z</time></trkpt><trkpt lat="51.7180315219" lon="-1.9729778823"><ele>115.01</ele><time>2014-11-12T10:10:17Z</time></trkpt><trkpt lat="51.7180355452" lon="-1.9732026011"><ele>115.98</ele><time>2014-11-12T10:10:29Z</time></trkpt><trkpt lat="51.7180362996" lon="-1.9732398167"><ele>115.98</ele><time>2014-11-12T10:10:31Z</time></trkpt><trkpt lat="51.7180311028" lon="-1.9734796230"><ele>116.46</ele><time>2014-11-12T10:10:45Z</time></trkpt><trkpt lat="51.7180194519" lon="-1.9737180881"><ele>116.94</ele><time>2014-11-12T10:10:58Z</time></trkpt><trkpt lat="51.7180065438" lon="-1.9738763385"><ele>116.94</ele><time>2014-11-12T10:11:07Z</time></trkpt><trkpt lat="51.7180068791" lon="-1.9739697129"><ele>116.94</ele><time>2014-11-12T10:11:12Z</time></trkpt><trkpt lat="51.7180025205" lon="-1.9740875624"><ele>117.42</ele><time>2014-11-12T10:11:19Z</time></trkpt><trkpt lat="51.7179677356" lon="-1.9743880536"><ele>118.38</ele><time>2014-11-12T10:11:34Z</time></trkpt><trkpt lat="51.7179338727" lon="-1.9746815879"><ele>118.38</ele><time>2014-11-12T10:11:50Z</time></trkpt><trkpt lat="51.7179246526" lon="-1.9748555962"><ele>118.86</ele><time>2014-11-12T10:12:00Z</time></trkpt><trkpt lat="51.7178997584" lon="-1.9751052093"><ele>118.86</ele><time>2014-11-12T10:12:15Z</time></trkpt><trkpt lat="51.7178997584" lon="-1.9751151837"><ele>119.34</ele><time>2014-11-12T10:12:16Z</time></trkpt><trkpt lat="51.7179042846" lon="-1.9751663972"><ele>119.34</ele><time>2014-11-12T10:12:21Z</time></trkpt><trkpt lat="51.7179233953" lon="-1.9752227236"><ele>119.82</ele><time>2014-11-12T10:12:37Z</time></trkpt><trkpt lat="51.7179121636" lon="-1.9752128329"><ele>119.34</ele><time>2014-11-12T10:12:59Z</time></trkpt><trkpt lat="51.7179296818" lon="-1.9751811493"><ele>119.34</ele><time>2014-11-12T10:13:20Z</time></trkpt><trkpt lat="51.7179283407" lon="-1.9751834963"><ele>119.34</ele><time>2014-11-12T10:13:37Z</time></trkpt><trkpt lat="51.7179284245" lon="-1.9751926325"><ele>119.82</ele><time>2014-11-12T10:13:58Z</time></trkpt><trkpt lat="51.7179296818" lon="-1.9752147608"><ele>119.34</ele><time>2014-11-12T10:14:13Z</time></trkpt><trkpt lat="51.7179296818" lon="-1.9752643816"><ele>119.34</ele><time>2014-11-12T10:14:16Z</time></trkpt><trkpt lat="51.7179402430" lon="-1.9753204565"><ele>119.82</ele><time>2014-11-12T10:14:19Z</time></trkpt><trkpt lat="51.7179472838" lon="-1.9753662217"><ele>119.82</ele><time>2014-11-12T10:14:21Z</time></trkpt><trkpt lat="51.7179420032" lon="-1.9754124060"><ele>119.34</ele><time>2014-11-12T10:14:23Z</time></trkpt><trkpt lat="51.7179525644" lon="-1.9755271543"><ele>119.34</ele><time>2014-11-12T10:14:29Z</time></trkpt><trkpt lat="51.7179513071" lon="-1.9756745081"><ele>119.34</ele><time>2014-11-12T10:14:37Z</time></trkpt><trkpt lat="51.7179549113" lon="-1.9757290743"><ele>118.86</ele><time>2014-11-12T10:14:40Z</time></trkpt><trkpt lat="51.7179614492" lon="-1.9757777732"><ele>119.82</ele><time>2014-11-12T10:14:43Z</time></trkpt><trkpt lat="51.7179590184" lon="-1.9758698065"><ele>119.34</ele><time>2014-11-12T10:14:49Z</time></trkpt><trkpt lat="51.7179607786" lon="-1.9759204332"><ele>119.34</ele><time>2014-11-12T10:14:52Z</time></trkpt><trkpt lat="51.7179690767" lon="-1.9761085231"><ele>119.82</ele><time>2014-11-12T10:15:04Z</time></trkpt><trkpt lat="51.7179831583" lon="-1.9762519374"><ele>119.34</ele><time>2014-11-12T10:15:13Z</time></trkpt><trkpt lat="51.7179743573" lon="-1.9762835372"><ele>119.82</ele><time>2014-11-12T10:15:15Z</time></trkpt><trkpt lat="51.7179736029" lon="-1.9763553701"><ele>119.34</ele><time>2014-11-12T10:15:19Z</time></trkpt><trkpt lat="51.7180317733" lon="-1.9764685258"><ele>118.86</ele><time>2014-11-12T10:15:30Z</time></trkpt><trkpt lat="51.7180205416" lon="-1.9766585436"><ele>119.34</ele><time>2014-11-12T10:15:40Z</time></trkpt><trkpt lat="51.7180096451" lon="-1.9768622238"><ele>119.82</ele><time>2014-11-12T10:15:52Z</time></trkpt><trkpt lat="51.7180172727" lon="-1.9769094139"><ele>119.82</ele><time>2014-11-12T10:15:55Z</time></trkpt><trkpt lat="51.7180370539" lon="-1.9770978391"><ele>119.82</ele><time>2014-11-12T10:16:08Z</time></trkpt><trkpt lat="51.7180425860" lon="-1.9771410059"><ele>119.82</ele><time>2014-11-12T10:16:10Z</time></trkpt><trkpt lat="51.7180611100" lon="-1.9773306884"><ele>119.82</ele><time>2014-11-12T10:16:22Z</time></trkpt><trkpt lat="51.7180841602" lon="-1.9774934649"><ele>119.82</ele><time>2014-11-12T10:16:32Z</time></trkpt><trkpt lat="51.7180777900" lon="-1.9775557425"><ele>120.30</ele><time>2014-11-12T10:16:36Z</time></trkpt><trkpt lat="51.7180866748" lon="-1.9776593428"><ele>119.82</ele><time>2014-11-12T10:16:42Z</time></trkpt><trkpt lat="51.7180774547" lon="-1.9779009093"><ele>120.30</ele><time>2014-11-12T10:16:56Z</time></trkpt><trkpt lat="51.7181047797" lon="-1.9780382048"><ele>120.30</ele><time>2014-11-12T10:17:05Z</time></trkpt><trkpt lat="51.7181114852" lon="-1.9780734926"><ele>120.30</ele><time>2014-11-12T10:17:08Z</time></trkpt><trkpt lat="51.7181106471" lon="-1.9781356864"><ele>120.78</ele><time>2014-11-12T10:17:15Z</time></trkpt><trkpt lat="51.7181028519" lon="-1.9781931862"><ele>120.78</ele><time>2014-11-12T10:17:20Z</time></trkpt><trkpt lat="51.7181005888" lon="-1.9783800188"><ele>120.78</ele><time>2014-11-12T10:17:31Z</time></trkpt><trkpt lat="51.7180957273" lon="-1.9784136303"><ele>120.30</ele><time>2014-11-12T10:17:33Z</time></trkpt><trkpt lat="51.7180984095" lon="-1.9784502592"><ele>120.30</ele><time>2014-11-12T10:17:35Z</time></trkpt><trkpt lat="51.7181193642" lon="-1.9785318989"><ele>121.26</ele><time>2014-11-12T10:17:39Z</time></trkpt><trkpt lat="51.7181521375" lon="-1.9787116908"><ele>120.78</ele><time>2014-11-12T10:17:50Z</time></trkpt><trkpt lat="51.7181533948" lon="-1.9787442125"><ele>120.30</ele><time>2014-11-12T10:17:52Z</time></trkpt><trkpt lat="51.7181224655" lon="-1.9788582902"><ele>121.26</ele><time>2014-11-12T10:17:59Z</time></trkpt><trkpt lat="51.7181727570" lon="-1.9790452067"><ele>120.78</ele><time>2014-11-12T10:18:10Z</time></trkpt><trkpt lat="51.7182113975" lon="-1.9792612083"><ele>121.74</ele><time>2014-11-12T10:18:23Z</time></trkpt><trkpt lat="51.7182059493" lon="-1.9792959094"><ele>120.78</ele><time>2014-11-12T10:18:25Z</time></trkpt><trkpt lat="51.7182136606" lon="-1.9795372244"><ele>121.26</ele><time>2014-11-12T10:18:39Z</time></trkpt><trkpt lat="51.7182207014" lon="-1.9796174392"><ele>121.26</ele><time>2014-11-12T10:18:44Z</time></trkpt><trkpt lat="51.7182438355" lon="-1.9797146693"><ele>121.74</ele><time>2014-11-12T10:18:50Z</time></trkpt><trkpt lat="51.7182418238" lon="-1.9798324350"><ele>121.74</ele><time>2014-11-12T10:18:58Z</time></trkpt><trkpt lat="51.7182446737" lon="-1.9799022563"><ele>121.26</ele><time>2014-11-12T10:19:02Z</time></trkpt><trkpt lat="51.7182258144" lon="-1.9801596645"><ele>121.74</ele><time>2014-11-12T10:19:16Z</time></trkpt><trkpt lat="51.7182059493" lon="-1.9804382790"><ele>122.71</ele><time>2014-11-12T10:19:31Z</time></trkpt><trkpt lat="51.7182061169" lon="-1.9804547913"><ele>122.71</ele><time>2014-11-12T10:19:32Z</time></trkpt><trkpt lat="51.7182545643" lon="-1.9806483295"><ele>122.71</ele><time>2014-11-12T10:19:45Z</time></trkpt><trkpt lat="51.7182532232" lon="-1.9806873053"><ele>122.71</ele><time>2014-11-12T10:19:48Z</time></trkpt><trkpt lat="51.7182319332" lon="-1.9808882196"><ele>122.71</ele><time>2014-11-12T10:20:01Z</time></trkpt><trkpt lat="51.7182406504" lon="-1.9810995273"><ele>123.19</ele><time>2014-11-12T10:20:14Z</time></trkpt><trkpt lat="51.7182407342" lon="-1.9811296184"><ele>123.19</ele><time>2014-11-12T10:20:16Z</time></trkpt><trkpt lat="51.7182229646" lon="-1.9812001102"><ele>123.67</ele><time>2014-11-12T10:20:20Z</time></trkpt><trkpt lat="51.7182516307" lon="-1.9813448656"><ele>123.19</ele><time>2014-11-12T10:20:29Z</time></trkpt><trkpt lat="51.7182479426" lon="-1.9814217277"><ele>123.67</ele><time>2014-11-12T10:20:33Z</time></trkpt><trkpt lat="51.7182477750" lon="-1.9816316944"><ele>124.15</ele><time>2014-11-12T10:20:45Z</time></trkpt><trkpt lat="51.7182296701" lon="-1.9818622805"><ele>124.63</ele><time>2014-11-12T10:20:58Z</time></trkpt><trkpt lat="51.7182323523" lon="-1.9819054473"><ele>124.15</ele><time>2014-11-12T10:21:00Z</time></trkpt><trkpt lat="51.7182533909" lon="-1.9820525497"><ele>124.63</ele><time>2014-11-12T10:21:13Z</time></trkpt><trkpt lat="51.7182906903" lon="-1.9821011648"><ele>124.63</ele><time>2014-11-12T10:21:27Z</time></trkpt><trkpt lat="51.7182972282" lon="-1.9821745064"><ele>125.11</ele><time>2014-11-12T10:21:42Z</time></trkpt><trkpt lat="51.7183100525" lon="-1.9823894184"><ele>125.59</ele><time>2014-11-12T10:21:55Z</time></trkpt><trkpt lat="51.7183088791" lon="-1.9824051764"><ele>125.59</ele><time>2014-11-12T10:21:56Z</time></trkpt><trkpt lat="51.7183191888" lon="-1.9826304819"><ele>126.07</ele><time>2014-11-12T10:22:09Z</time></trkpt><trkpt lat="51.7183556501" lon="-1.9828475732"><ele>126.07</ele><time>2014-11-12T10:22:21Z</time></trkpt><trkpt lat="51.7183699831" lon="-1.9829929154"><ele>127.03</ele><time>2014-11-12T10:22:34Z</time></trkpt><trkpt lat="51.7183652055" lon="-1.9830468949"><ele>126.55</ele><time>2014-11-12T10:22:45Z</time></trkpt><trkpt lat="51.7183087952" lon="-1.9831183925"><ele>126.07</ele><time>2014-11-12T10:22:58Z</time></trkpt><trkpt lat="51.7182077933" lon="-1.9831833523"><ele>126.55</ele><time>2014-11-12T10:23:14Z</time></trkpt><trkpt lat="51.7181564122" lon="-1.9834166206"><ele>127.51</ele><time>2014-11-12T10:23:30Z</time></trkpt><trkpt lat="51.7181374691" lon="-1.9835807383"><ele>127.03</ele><time>2014-11-12T10:23:42Z</time></trkpt><trkpt lat="51.7181088869" lon="-1.9836595282"><ele>127.99</ele><time>2014-11-12T10:23:48Z</time></trkpt><trkpt lat="51.7180800531" lon="-1.9837275054"><ele>127.99</ele><time>2014-11-12T10:23:52Z</time></trkpt><trkpt lat="51.7180951405" lon="-1.9838385656"><ele>127.99</ele><time>2014-11-12T10:24:03Z</time></trkpt><trkpt lat="51.7180755269" lon="-1.9839798845"><ele>128.47</ele><time>2014-11-12T10:24:12Z</time></trkpt><trkpt lat="51.7180420831" lon="-1.9842056930"><ele>128.47</ele><time>2014-11-12T10:24:25Z</time></trkpt><trkpt lat="51.7179949768" lon="-1.9843000732"><ele>128.95</ele><time>2014-11-12T10:24:38Z</time></trkpt><trkpt lat="51.7179808952" lon="-1.9844397996"><ele>128.95</ele><time>2014-11-12T10:24:50Z</time></trkpt><trkpt lat="51.7179968208" lon="-1.9844990596"><ele>129.43</ele><time>2014-11-12T10:25:06Z</time></trkpt><trkpt lat="51.7179965694" lon="-1.9846198428"><ele>129.43</ele><time>2014-11-12T10:25:22Z</time></trkpt><trkpt lat="51.7179911211" lon="-1.9847038295"><ele>129.92</ele><time>2014-11-12T10:25:37Z</time></trkpt><trkpt lat="51.7179927137" lon="-1.9848678634"><ele>129.92</ele><time>2014-11-12T10:25:50Z</time></trkpt><trkpt lat="51.7179789674" lon="-1.9850696158"><ele>130.40</ele><time>2014-11-12T10:26:03Z</time></trkpt><trkpt lat="51.7179796379" lon="-1.9852857850"><ele>130.40</ele><time>2014-11-12T10:26:20Z</time></trkpt><trkpt lat="51.7179834098" lon="-1.9854014553"><ele>130.40</ele><time>2014-11-12T10:26:35Z</time></trkpt><trkpt lat="51.7179959826" lon="-1.9855658244"><ele>130.88</ele><time>2014-11-12T10:26:47Z</time></trkpt><trkpt lat="51.7180092260" lon="-1.9857377373"><ele>131.36</ele><time>2014-11-12T10:27:02Z</time></trkpt><trkpt lat="51.7180699110" lon="-1.9859177805"><ele>131.36</ele><time>2014-11-12T10:27:17Z</time></trkpt><trkpt lat="51.7180835735" lon="-1.9861295074"><ele>131.36</ele><time>2014-11-12T10:27:31Z</time></trkpt><trkpt lat="51.7181178555" lon="-1.9863471854"><ele>131.36</ele><time>2014-11-12T10:27:45Z</time></trkpt><trkpt lat="51.7181077972" lon="-1.9864923600"><ele>131.36</ele><time>2014-11-12T10:28:01Z</time></trkpt><trkpt lat="51.7181135807" lon="-1.9867721479"><ele>131.36</ele><time>2014-11-12T10:28:18Z</time></trkpt><trkpt lat="51.7181086354" lon="-1.9869689550"><ele>130.88</ele><time>2014-11-12T10:28:29Z</time></trkpt><trkpt lat="51.7181072943" lon="-1.9872161373"><ele>130.40</ele><time>2014-11-12T10:28:43Z</time></trkpt><trkpt lat="51.7181492876" lon="-1.9874228351"><ele>129.92</ele><time>2014-11-12T10:28:58Z</time></trkpt><trkpt lat="51.7181603517" lon="-1.9877406769"><ele>130.88</ele><time>2014-11-12T10:29:16Z</time></trkpt><trkpt lat="51.7181656323" lon="-1.9879873563"><ele>130.88</ele><time>2014-11-12T10:29:30Z</time></trkpt><trkpt lat="51.7181611061" lon="-1.9881645497"><ele>130.88</ele><time>2014-11-12T10:29:41Z</time></trkpt><trkpt lat="51.7181616928" lon="-1.9881961495"><ele>131.84</ele><time>2014-11-12T10:29:57Z</time></trkpt><trkpt lat="51.7181812227" lon="-1.9882962294"><ele>131.36</ele><time>2014-11-12T10:30:11Z</time></trkpt><trkpt lat="51.7182061169" lon="-1.9884726685"><ele>132.32</ele><time>2014-11-12T10:30:24Z</time></trkpt><trkpt lat="51.7182109784" lon="-1.9887174200"><ele>133.28</ele><time>2014-11-12T10:30:39Z</time></trkpt><trkpt lat="51.7182452604" lon="-1.9889454916"><ele>133.28</ele><time>2014-11-12T10:30:56Z</time></trkpt><trkpt lat="51.7182615213" lon="-1.9892024808"><ele>133.76</ele><time>2014-11-12T10:31:12Z</time></trkpt><trkpt lat="51.7183084600" lon="-1.9893940911"><ele>134.72</ele><time>2014-11-12T10:31:29Z</time></trkpt><trkpt lat="51.7183026765" lon="-1.9896432012"><ele>134.24</ele><time>2014-11-12T10:31:44Z</time></trkpt><trkpt lat="51.7183044367" lon="-1.9898796547"><ele>135.20</ele><time>2014-11-12T10:32:00Z</time></trkpt><trkpt lat="51.7183063645" lon="-1.9901596103"><ele>135.68</ele><time>2014-11-12T10:32:16Z</time></trkpt><trkpt lat="51.7183129024" lon="-1.9903843291"><ele>136.64</ele><time>2014-11-12T10:32:30Z</time></trkpt><trkpt lat="51.7183343600" lon="-1.9906769414"><ele>136.16</ele><time>2014-11-12T10:32:50Z</time></trkpt><trkpt lat="51.7183331866" lon="-1.9909516163"><ele>137.13</ele><time>2014-11-12T10:33:07Z</time></trkpt><trkpt lat="51.7183480226" lon="-1.9911333360"><ele>137.13</ele><time>2014-11-12T10:33:18Z</time></trkpt><trkpt lat="51.7183663789" lon="-1.9913655985"><ele>137.61</ele><time>2014-11-12T10:33:35Z</time></trkpt><trkpt lat="51.7183859926" lon="-1.9916017167"><ele>138.09</ele><time>2014-11-12T10:33:51Z</time></trkpt><trkpt lat="51.7183840647" lon="-1.9919252582"><ele>138.57</ele><time>2014-11-12T10:34:08Z</time></trkpt><trkpt lat="51.7183950450" lon="-1.9921265077"><ele>139.05</ele><time>2014-11-12T10:34:23Z</time></trkpt><trkpt lat="51.7183843162" lon="-1.9923909567"><ele>139.53</ele><time>2014-11-12T10:34:39Z</time></trkpt><trkpt lat="51.7183995713" lon="-1.9926526397"><ele>140.01</ele><time>2014-11-12T10:34:54Z</time></trkpt><trkpt lat="51.7183845676" lon="-1.9927512109"><ele>139.53</ele><time>2014-11-12T10:35:00Z</time></trkpt><trkpt lat="51.7183611821" lon="-1.9928606786"><ele>140.49</ele><time>2014-11-12T10:35:07Z</time></trkpt><trkpt lat="51.7183574103" lon="-1.9928991515"><ele>140.49</ele><time>2014-11-12T10:35:10Z</time></trkpt><trkpt lat="51.7183375452" lon="-1.9930035900"><ele>140.49</ele><time>2014-11-12T10:35:25Z</time></trkpt><trkpt lat="51.7183269840" lon="-1.9931750838"><ele>140.97</ele><time>2014-11-12T10:35:41Z</time></trkpt><trkpt lat="51.7183031794" lon="-1.9934035745"><ele>141.45</ele><time>2014-11-12T10:35:59Z</time></trkpt><trkpt lat="51.7182748485" lon="-1.9934516028"><ele>141.45</ele><time>2014-11-12T10:36:14Z</time></trkpt><trkpt lat="51.7182843201" lon="-1.9936099369"><ele>141.45</ele><time>2014-11-12T10:36:28Z</time></trkpt><trkpt lat="51.7182491999" lon="-1.9938730448"><ele>141.93</ele><time>2014-11-12T10:36:44Z</time></trkpt><trkpt lat="51.7182255629" lon="-1.9942125957"><ele>141.45</ele><time>2014-11-12T10:37:00Z</time></trkpt><trkpt lat="51.7182068713" lon="-1.9943779707"><ele>141.93</ele><time>2014-11-12T10:37:13Z</time></trkpt><trkpt lat="51.7181759421" lon="-1.9947043620"><ele>141.93</ele><time>2014-11-12T10:37:31Z</time></trkpt><trkpt lat="51.7181270756" lon="-1.9949871674"><ele>142.41</ele><time>2014-11-12T10:37:48Z</time></trkpt><trkpt lat="51.7180577572" lon="-1.9952709787"><ele>141.93</ele><time>2014-11-12T10:38:04Z</time></trkpt><trkpt lat="51.7179969884" lon="-1.9954943564"><ele>142.41</ele><time>2014-11-12T10:38:20Z</time></trkpt><trkpt lat="51.7179686576" lon="-1.9957465678"><ele>141.93</ele><time>2014-11-12T10:38:36Z</time></trkpt><trkpt lat="51.7179141752" lon="-1.9960007071"><ele>143.37</ele><time>2014-11-12T10:38:52Z</time></trkpt><trkpt lat="51.7178515624" lon="-1.9962152839"><ele>142.89</ele><time>2014-11-12T10:39:08Z</time></trkpt><trkpt lat="51.7178401630" lon="-1.9964363985"><ele>143.37</ele><time>2014-11-12T10:39:24Z</time></trkpt><trkpt lat="51.7178514786" lon="-1.9966630451"><ele>142.89</ele><time>2014-11-12T10:39:40Z</time></trkpt><trkpt lat="51.7179284245" lon="-1.9968268275"><ele>143.37</ele><time>2014-11-12T10:39:53Z</time></trkpt><trkpt lat="51.7180304322" lon="-1.9969600998"><ele>142.89</ele><time>2014-11-12T10:40:08Z</time></trkpt><trkpt lat="51.7180590983" lon="-1.9969992433"><ele>142.89</ele><time>2014-11-12T10:40:14Z</time></trkpt><trkpt lat="51.7181823123" lon="-1.9971657917"><ele>142.89</ele><time>2014-11-12T10:40:28Z</time></trkpt><trkpt lat="51.7182422429" lon="-1.9972038455"><ele>143.37</ele><time>2014-11-12T10:40:51Z</time></trkpt><trkpt lat="51.7183028441" lon="-1.9973938633"><ele>142.41</ele><time>2014-11-12T10:41:10Z</time></trkpt><trkpt lat="51.7184053548" lon="-1.9977057539"><ele>142.41</ele><time>2014-11-12T10:41:28Z</time></trkpt><trkpt lat="51.7184855696" lon="-1.9978872221"><ele>142.89</ele><time>2014-11-12T10:41:45Z</time></trkpt><trkpt lat="51.7185833864" lon="-1.9981278665"><ele>142.89</ele><time>2014-11-12T10:42:02Z</time></trkpt><trkpt lat="51.7186657805" lon="-1.9982938282"><ele>142.41</ele><time>2014-11-12T10:42:17Z</time></trkpt><trkpt lat="51.7187780142" lon="-1.9984186348"><ele>142.41</ele><time>2014-11-12T10:42:32Z</time></trkpt><trkpt lat="51.7188376933" lon="-1.9984863605"><ele>142.41</ele><time>2014-11-12T10:42:50Z</time></trkpt><trkpt lat="51.7190082651" lon="-1.9985628035"><ele>142.41</ele><time>2014-11-12T10:43:03Z</time></trkpt><trkpt lat="51.7191514280" lon="-1.9985529967"><ele>143.37</ele><time>2014-11-12T10:43:18Z</time></trkpt><trkpt lat="51.7192511726" lon="-1.9985311199"><ele>142.89</ele><time>2014-11-12T10:43:32Z</time></trkpt><trkpt lat="51.7193598859" lon="-1.9985621329"><ele>143.37</ele><time>2014-11-12T10:43:49Z</time></trkpt><trkpt lat="51.7193929106" lon="-1.9986291043"><ele>142.89</ele><time>2014-11-12T10:43:55Z</time></trkpt><trkpt lat="51.7194406036" lon="-1.9987842534"><ele>143.37</ele><time>2014-11-12T10:44:06Z</time></trkpt><trkpt lat="51.7194677610" lon="-1.9989409111"><ele>142.89</ele><time>2014-11-12T10:44:17Z</time></trkpt><trkpt lat="51.7194705270" lon="-1.9989883527"><ele>142.89</ele><time>2014-11-12T10:44:20Z</time></trkpt><trkpt lat="51.7194684315" lon="-1.9990207907"><ele>142.89</ele><time>2014-11-12T10:44:22Z</time></trkpt><trkpt lat="51.7194851115" lon="-1.9991113152"><ele>142.89</ele><time>2014-11-12T10:44:28Z</time></trkpt><trkpt lat="51.7194913980" lon="-1.9993217010"><ele>143.37</ele><time>2014-11-12T10:44:42Z</time></trkpt><trkpt lat="51.7194911465" lon="-1.9993517082"><ele>142.89</ele><time>2014-11-12T10:44:44Z</time></trkpt><trkpt lat="51.7195038032" lon="-1.9994750060"><ele>143.37</ele><time>2014-11-12T10:44:52Z</time></trkpt><trkpt lat="51.7195024621" lon="-1.9995257165"><ele>143.37</ele><time>2014-11-12T10:44:55Z</time></trkpt><trkpt lat="51.7195172142" lon="-1.9997366052"><ele>143.37</ele><time>2014-11-12T10:45:08Z</time></trkpt><trkpt lat="51.7195175495" lon="-1.9997990504"><ele>143.37</ele><time>2014-11-12T10:45:12Z</time></trkpt><trkpt lat="51.7195356544" lon="-1.9998779241"><ele>143.37</ele><time>2014-11-12T10:45:17Z</time></trkpt><trkpt lat="51.7195473891" lon="-1.9999847934"><ele>143.37</ele><time>2014-11-12T10:45:23Z</time></trkpt><trkpt lat="51.7195544299" lon="-2.0001865458"><ele>143.37</ele><time>2014-11-12T10:45:35Z</time></trkpt><trkpt lat="51.7195835989" lon="-2.0002848655"><ele>143.37</ele><time>2014-11-12T10:45:42Z</time></trkpt><trkpt lat="51.7195733730" lon="-2.0003728755"><ele>143.85</ele><time>2014-11-12T10:45:49Z</time></trkpt><trkpt lat="51.7195153702" lon="-2.0005177148"><ele>142.89</ele><time>2014-11-12T10:46:00Z</time></trkpt><trkpt lat="51.7194875423" lon="-2.0006531663"><ele>142.89</ele><time>2014-11-12T10:46:15Z</time></trkpt><trkpt lat="51.7194483988" lon="-2.0006936509"><ele>142.89</ele><time>2014-11-12T10:46:28Z</time></trkpt><trkpt lat="51.7194358259" lon="-2.0006893761"><ele>142.89</ele><time>2014-11-12T10:46:49Z</time></trkpt><trkpt lat="51.7194052320" lon="-2.0006514061"><ele>143.37</ele><time>2014-11-12T10:47:04Z</time></trkpt><trkpt lat="51.7194446269" lon="-2.0006909687"><ele>142.89</ele><time>2014-11-12T10:47:19Z</time></trkpt><trkpt lat="51.7194487341" lon="-2.0007793140"><ele>143.37</ele><time>2014-11-12T10:47:32Z</time></trkpt><trkpt lat="51.7194549367" lon="-2.0007969998"><ele>143.37</ele><time>2014-11-12T10:47:34Z</time></trkpt><trkpt lat="51.7194699403" lon="-2.0008452795"><ele>143.37</ele><time>2014-11-12T10:47:48Z</time></trkpt><trkpt lat="51.7194780707" lon="-2.0008665696"><ele>142.89</ele><time>2014-11-12T10:48:03Z</time></trkpt><trkpt lat="51.7194953375" lon="-2.0010049548"><ele>142.89</ele><time>2014-11-12T10:48:13Z</time></trkpt><trkpt lat="51.7194982711" lon="-2.0010630414"><ele>143.37</ele><time>2014-11-12T10:48:18Z</time></trkpt><trkpt lat="51.7194965109" lon="-2.0011192001"><ele>143.37</ele><time>2014-11-12T10:48:21Z</time></trkpt><trkpt lat="51.7195223272" lon="-2.0013279095"><ele>143.37</ele><time>2014-11-12T10:48:35Z</time></trkpt><trkpt lat="51.7195234168" lon="-2.0014334377"><ele>143.37</ele><time>2014-11-12T10:48:41Z</time></trkpt><trkpt lat="51.7195440363" lon="-2.0016872417"><ele>143.37</ele><time>2014-11-12T10:48:57Z</time></trkpt><trkpt lat="51.7195628118" lon="-2.0019533671"><ele>143.37</ele><time>2014-11-12T10:49:14Z</time></trkpt><trkpt lat="51.7195706908" lon="-2.0020436402"><ele>143.85</ele><time>2014-11-12T10:49:20Z</time></trkpt><trkpt lat="51.7196022067" lon="-2.0023142081"><ele>143.85</ele><time>2014-11-12T10:49:35Z</time></trkpt><trkpt lat="51.7196042184" lon="-2.0023463946"><ele>143.85</ele><time>2014-11-12T10:49:37Z</time></trkpt><trkpt lat="51.7196322139" lon="-2.0025691018"><ele>143.85</ele><time>2014-11-12T10:49:51Z</time></trkpt><trkpt lat="51.7196286935" lon="-2.0026082452"><ele>142.89</ele><time>2014-11-12T10:50:04Z</time></trkpt><trkpt lat="51.7196369078" lon="-2.0026086643"><ele>143.37</ele><time>2014-11-12T10:50:21Z</time></trkpt><trkpt lat="51.7196388356" lon="-2.0025950018"><ele>143.37</ele><time>2014-11-12T10:50:40Z</time></trkpt><trkpt lat="51.7196604609" lon="-2.0026120171"><ele>144.34</ele><time>2014-11-12T10:50:51Z</time></trkpt><trkpt lat="51.7197026219" lon="-2.0026635658"><ele>143.85</ele><time>2014-11-12T10:51:03Z</time></trkpt><trkpt lat="51.7197034601" lon="-2.0026634820"><ele>143.37</ele><time>2014-11-12T10:51:09Z</time></trkpt><trkpt lat="51.7197261751" lon="-2.0029372349"><ele>143.37</ele><time>2014-11-12T10:51:24Z</time></trkpt><trkpt lat="51.7197353113" lon="-2.0032429229"><ele>144.82</ele><time>2014-11-12T10:51:38Z</time></trkpt><trkpt lat="51.7197365686" lon="-2.0033328608"><ele>143.85</ele><time>2014-11-12T10:51:42Z</time></trkpt><trkpt lat="51.7197611276" lon="-2.0036268979"><ele>143.85</ele><time>2014-11-12T10:51:57Z</time></trkpt><trkpt lat="51.7197671626" lon="-2.0037869085"><ele>143.85</ele><time>2014-11-12T10:52:05Z</time></trkpt><trkpt lat="51.7197894584" lon="-2.0039786864"><ele>143.85</ele><time>2014-11-12T10:52:15Z</time></trkpt><trkpt lat="51.7198078986" lon="-2.0040868968"><ele>143.37</ele><time>2014-11-12T10:52:20Z</time></trkpt><trkpt lat="51.7198035400" lon="-2.0042884815"><ele>143.85</ele><time>2014-11-12T10:52:29Z</time></trkpt><trkpt lat="51.7197970860" lon="-2.0043319836"><ele>143.85</ele><time>2014-11-12T10:52:31Z</time></trkpt><trkpt lat="51.7198372353" lon="-2.0044237655"><ele>144.34</ele><time>2014-11-12T10:52:37Z</time></trkpt><trkpt lat="51.7198467068" lon="-2.0044780802"><ele>144.34</ele><time>2014-11-12T10:52:40Z</time></trkpt><trkpt lat="51.7198470421" lon="-2.0045825187"><ele>144.34</ele><time>2014-11-12T10:52:45Z</time></trkpt><trkpt lat="51.7198540829" lon="-2.0046996977"><ele>144.34</ele><time>2014-11-12T10:52:51Z</time></trkpt><trkpt lat="51.7198412586" lon="-2.0048381668"><ele>143.85</ele><time>2014-11-12T10:52:57Z</time></trkpt><trkpt lat="51.7197967507" lon="-2.0050097443"><ele>144.34</ele><time>2014-11-12T10:53:11Z</time></trkpt><trkpt lat="51.7197959125" lon="-2.0049966685"><ele>143.85</ele><time>2014-11-12T10:53:34Z</time></trkpt><trkpt lat="51.7197923921" lon="-2.0050314534"><ele>144.34</ele><time>2014-11-12T10:53:54Z</time></trkpt><trkpt lat="51.7197959125" lon="-2.0050139353"><ele>144.34</ele><time>2014-11-12T10:54:20Z</time></trkpt><trkpt lat="51.7197987624" lon="-2.0050277654"><ele>144.82</ele><time>2014-11-12T10:54:28Z</time></trkpt><trkpt lat="51.7198052164" lon="-2.0051579364"><ele>144.82</ele><time>2014-11-12T10:54:34Z</time></trkpt><trkpt lat="51.7198280990" lon="-2.0052758697"><ele>144.34</ele><time>2014-11-12T10:54:41Z</time></trkpt><trkpt lat="51.7198487185" lon="-2.0054734312"><ele>144.34</ele><time>2014-11-12T10:54:51Z</time></trkpt><trkpt lat="51.7198586930" lon="-2.0055876765"><ele>145.30</ele><time>2014-11-12T10:54:56Z</time></trkpt><trkpt lat="51.7198705114" lon="-2.0057033468"><ele>145.30</ele><time>2014-11-12T10:55:01Z</time></trkpt><trkpt lat="51.7199203838" lon="-2.0060293190"><ele>144.82</ele><time>2014-11-12T10:55:15Z</time></trkpt><trkpt lat="51.7199350521" lon="-2.0061164908"><ele>145.30</ele><time>2014-11-12T10:55:19Z</time></trkpt><trkpt lat="51.7199511454" lon="-2.0061856415"><ele>144.82</ele><time>2014-11-12T10:55:23Z</time></trkpt><trkpt lat="51.7199719325" lon="-2.0063011441"><ele>144.82</ele><time>2014-11-12T10:55:28Z</time></trkpt><trkpt lat="51.7199777998" lon="-2.0063753240"><ele>144.82</ele><time>2014-11-12T10:55:31Z</time></trkpt><trkpt lat="51.7200066335" lon="-2.0066433772"><ele>144.82</ele><time>2014-11-12T10:55:43Z</time></trkpt><trkpt lat="51.7200152669" lon="-2.0067404397"><ele>144.82</ele><time>2014-11-12T10:55:48Z</time></trkpt><trkpt lat="51.7200514767" lon="-2.0069833472"><ele>145.30</ele><time>2014-11-12T10:55:59Z</time></trkpt><trkpt lat="51.7200545780" lon="-2.0070002787"><ele>145.30</ele><time>2014-11-12T10:56:00Z</time></trkpt><trkpt lat="51.7201023549" lon="-2.0073346328"><ele>145.30</ele><time>2014-11-12T10:56:15Z</time></trkpt><trkpt lat="51.7201127484" lon="-2.0073829964"><ele>145.78</ele><time>2014-11-12T10:56:17Z</time></trkpt><trkpt lat="51.7201515567" lon="-2.0075264946"><ele>145.30</ele><time>2014-11-12T10:56:24Z</time></trkpt><trkpt lat="51.7202073801" lon="-2.0077834837"><ele>145.78</ele><time>2014-11-12T10:56:38Z</time></trkpt><trkpt lat="51.7202119902" lon="-2.0080318395"><ele>145.30</ele><time>2014-11-12T10:56:48Z</time></trkpt><trkpt lat="51.7202202044" lon="-2.0081827976"><ele>145.30</ele><time>2014-11-12T10:56:54Z</time></trkpt><trkpt lat="51.7202313524" lon="-2.0084386133"><ele>145.30</ele><time>2014-11-12T10:57:06Z</time></trkpt><trkpt lat="51.7202414945" lon="-2.0086229313"><ele>145.30</ele><time>2014-11-12T10:57:14Z</time></trkpt><trkpt lat="51.7202375550" lon="-2.0086750668"><ele>145.30</ele><time>2014-11-12T10:57:16Z</time></trkpt><trkpt lat="51.7202392314" lon="-2.0088936668"><ele>145.30</ele><time>2014-11-12T10:57:26Z</time></trkpt><trkpt lat="51.7202749383" lon="-2.0090916473"><ele>144.82</ele><time>2014-11-12T10:57:35Z</time></trkpt><trkpt lat="51.7202980723" lon="-2.0093674120"><ele>145.78</ele><time>2014-11-12T10:57:46Z</time></trkpt><trkpt lat="51.7203091364" lon="-2.0096509717"><ele>145.78</ele><time>2014-11-12T10:57:59Z</time></trkpt><trkpt lat="51.7203311808" lon="-2.0099027641"><ele>145.30</ele><time>2014-11-12T10:58:10Z</time></trkpt><trkpt lat="51.7203396466" lon="-2.0100156683"><ele>145.78</ele><time>2014-11-12T10:58:21Z</time></trkpt><trkpt lat="51.7203652952" lon="-2.0102874935"><ele>145.78</ele><time>2014-11-12T10:58:36Z</time></trkpt><trkpt lat="51.7203976493" lon="-2.0105350949"><ele>145.30</ele><time>2014-11-12T10:58:50Z</time></trkpt><trkpt lat="51.7203958891" lon="-2.0105862245"><ele>145.30</ele><time>2014-11-12T10:58:53Z</time></trkpt><trkpt lat="51.7204075400" lon="-2.0107940119"><ele>144.82</ele><time>2014-11-12T10:59:07Z</time></trkpt><trkpt lat="51.7204068694" lon="-2.0108275395"><ele>145.30</ele><time>2014-11-12T10:59:10Z</time></trkpt><trkpt lat="51.7204186879" lon="-2.0110265259"><ele>144.82</ele><time>2014-11-12T10:59:25Z</time></trkpt><trkpt lat="51.7204191070" lon="-2.0110652503"><ele>144.34</ele><time>2014-11-12T10:59:28Z</time></trkpt><trkpt lat="51.7204334401" lon="-2.0112298708"><ele>144.82</ele><time>2014-11-12T10:59:41Z</time></trkpt><trkpt lat="51.7204442527" lon="-2.0112364087"><ele>145.30</ele><time>2014-11-12T11:00:01Z</time></trkpt><trkpt lat="51.7204373796" lon="-2.0112815034"><ele>145.30</ele><time>2014-11-12T11:00:13Z</time></trkpt><trkpt lat="51.7204294167" lon="-2.0112788212"><ele>145.78</ele><time>2014-11-12T11:00:20Z</time></trkpt><trkpt lat="51.7204153351" lon="-2.0113050565"><ele>145.78</ele><time>2014-11-12T11:00:23Z</time></trkpt><trkpt lat="51.7202836554" lon="-2.0114592835"><ele>144.82</ele><time>2014-11-12T11:00:36Z</time></trkpt><trkpt lat="51.7201359663" lon="-2.0116047096"><ele>143.85</ele><time>2014-11-12T11:00:50Z</time></trkpt><trkpt lat="51.7201276682" lon="-2.0116104931"><ele>144.34</ele><time>2014-11-12T11:00:51Z</time></trkpt><trkpt lat="51.7200547457" lon="-2.0116695855"><ele>143.85</ele><time>2014-11-12T11:01:01Z</time></trkpt><trkpt lat="51.7200273369" lon="-2.0116877742"><ele>144.34</ele><time>2014-11-12T11:01:04Z</time></trkpt><trkpt lat="51.7199274246" lon="-2.0117670670"><ele>143.37</ele><time>2014-11-12T11:01:19Z</time></trkpt><trkpt lat="51.7199259996" lon="-2.0117611997"><ele>143.85</ele><time>2014-11-12T11:01:33Z</time></trkpt><trkpt lat="51.7199249938" lon="-2.0117485430"><ele>143.85</ele><time>2014-11-12T11:01:54Z</time></trkpt><trkpt lat="51.7199287657" lon="-2.0117451902"><ele>144.34</ele><time>2014-11-12T11:02:19Z</time></trkpt><trkpt lat="51.7199288495" lon="-2.0117455255"><ele>143.85</ele><time>2014-11-12T11:02:37Z</time></trkpt><trkpt lat="51.7199243233" lon="-2.0117480401"><ele>143.85</ele><time>2014-11-12T11:02:58Z</time></trkpt><trkpt lat="51.7199322022" lon="-2.0117931347"><ele>143.85</ele><time>2014-11-12T11:03:10Z</time></trkpt><trkpt lat="51.7199000996" lon="-2.0118750259"><ele>143.85</ele><time>2014-11-12T11:03:16Z</time></trkpt><trkpt lat="51.7198741995" lon="-2.0118520595"><ele>143.85</ele><time>2014-11-12T11:03:30Z</time></trkpt><trkpt lat="51.7198666558" lon="-2.0118458569"><ele>143.85</ele><time>2014-11-12T11:03:46Z</time></trkpt><trkpt lat="51.7198640574" lon="-2.0118482877"><ele>143.85</ele><time>2014-11-12T11:03:49Z</time></trkpt><trkpt lat="51.7198726907" lon="-2.0117421728"><ele>143.37</ele><time>2014-11-12T11:04:00Z</time></trkpt><trkpt lat="51.7198843416" lon="-2.0117445197"><ele>143.37</ele><time>2014-11-12T11:04:19Z</time></trkpt><trkpt lat="51.7198899575" lon="-2.0117808133"><ele>143.37</ele><time>2014-11-12T11:04:21Z</time></trkpt><trkpt lat="51.7198997643" lon="-2.0118134189"><ele>143.37</ele><time>2014-11-12T11:04:33Z</time></trkpt><trkpt lat="51.7199099064" lon="-2.0118211303"><ele>143.37</ele><time>2014-11-12T11:04:36Z</time></trkpt><trkpt lat="51.7199326213" lon="-2.0117684081"><ele>143.37</ele><time>2014-11-12T11:04:48Z</time></trkpt><trkpt lat="51.7199303582" lon="-2.0117606968"><ele>143.37</ele><time>2014-11-12T11:05:04Z</time></trkpt><trkpt lat="51.7199284304" lon="-2.0117644686"><ele>142.89</ele><time>2014-11-12T11:05:29Z</time></trkpt><trkpt lat="51.7199280113" lon="-2.0117643848"><ele>143.85</ele><time>2014-11-12T11:06:03Z</time></trkpt><trkpt lat="51.7199282628" lon="-2.0117638819"><ele>143.85</ele><time>2014-11-12T11:06:22Z</time></trkpt><trkpt lat="51.7199328728" lon="-2.0117751975"><ele>143.85</ele><time>2014-11-12T11:06:40Z</time></trkpt><trkpt lat="51.7199280113" lon="-2.0117800590"><ele>143.85</ele><time>2014-11-12T11:07:06Z</time></trkpt><trkpt lat="51.7199230660" lon="-2.0117772929"><ele>143.85</ele><time>2014-11-12T11:07:29Z</time></trkpt><trkpt lat="51.7199272569" lon="-2.0117838308"><ele>143.85</ele><time>2014-11-12T11:07:58Z</time></trkpt><trkpt lat="51.7199279275" lon="-2.0117840823"><ele>143.85</ele><time>2014-11-12T11:08:25Z</time></trkpt><trkpt lat="51.7199285142" lon="-2.0117817353"><ele>143.85</ele><time>2014-11-12T11:08:53Z</time></trkpt><trkpt lat="51.7199289333" lon="-2.0117772929"><ele>143.85</ele><time>2014-11-12T11:09:12Z</time></trkpt><trkpt lat="51.7199312802" lon="-2.0117771253"><ele>143.37</ele><time>2014-11-12T11:09:33Z</time></trkpt><trkpt lat="51.7199303582" lon="-2.0117769577"><ele>143.85</ele><time>2014-11-12T11:09:57Z</time></trkpt><trkpt lat="51.7199359741" lon="-2.0117802266"><ele>144.34</ele><time>2014-11-12T11:10:21Z</time></trkpt><trkpt lat="51.7199350521" lon="-2.0117788855"><ele>143.85</ele><time>2014-11-12T11:10:48Z</time></trkpt><trkpt lat="51.7199322022" lon="-2.0117745269"><ele>143.37</ele><time>2014-11-12T11:11:10Z</time></trkpt><trkpt lat="51.7199285142" lon="-2.0117656421"><ele>143.85</ele><time>2014-11-12T11:11:31Z</time></trkpt><trkpt lat="51.7199275922" lon="-2.0117518120"><ele>143.85</ele><time>2014-11-12T11:11:45Z</time></trkpt><trkpt lat="51.7199238203" lon="-2.0117427595"><ele>144.34</ele><time>2014-11-12T11:12:09Z</time></trkpt><trkpt lat="51.7199267540" lon="-2.0117452741"><ele>143.85</ele><time>2014-11-12T11:12:26Z</time></trkpt><trkpt lat="51.7199797276" lon="-2.0118646324"><ele>144.34</ele><time>2014-11-12T11:12:39Z</time></trkpt><trkpt lat="51.7199773807" lon="-2.0118720084"><ele>143.85</ele><time>2014-11-12T11:13:02Z</time></trkpt><trkpt lat="51.7200298514" lon="-2.0120001677"><ele>144.34</ele><time>2014-11-12T11:13:10Z</time></trkpt><trkpt lat="51.7200998403" lon="-2.0121638663"><ele>144.82</ele><time>2014-11-12T11:13:21Z</time></trkpt><trkpt lat="51.7201210465" lon="-2.0122143254"><ele>144.82</ele><time>2014-11-12T11:13:24Z</time></trkpt><trkpt lat="51.7201561667" lon="-2.0123201050"><ele>144.82</ele><time>2014-11-12T11:13:30Z</time></trkpt><trkpt lat="51.7201652192" lon="-2.0123812929"><ele>145.30</ele><time>2014-11-12T11:13:33Z</time></trkpt><trkpt lat="51.7201937176" lon="-2.0124264713"><ele>145.78</ele><time>2014-11-12T11:13:36Z</time></trkpt><trkpt lat="51.7202448472" lon="-2.0124898385"><ele>145.30</ele><time>2014-11-12T11:13:45Z</time></trkpt><trkpt lat="51.7202814762" lon="-2.0126025751"><ele>145.30</ele><time>2014-11-12T11:13:51Z</time></trkpt><trkpt lat="51.7203038558" lon="-2.0127122104"><ele>145.30</ele><time>2014-11-12T11:13:56Z</time></trkpt><trkpt lat="51.7203374673" lon="-2.0128427166"><ele>146.26</ele><time>2014-11-12T11:14:03Z</time></trkpt><trkpt lat="51.7203433346" lon="-2.0129194949"><ele>145.78</ele><time>2014-11-12T11:14:07Z</time></trkpt><trkpt lat="51.7203665525" lon="-2.0130007993"><ele>146.26</ele><time>2014-11-12T11:14:12Z</time></trkpt><trkpt lat="51.7203883454" lon="-2.0130901504"><ele>146.74</ele><time>2014-11-12T11:14:18Z</time></trkpt><trkpt lat="51.7204252258" lon="-2.0132627338"><ele>146.74</ele><time>2014-11-12T11:14:26Z</time></trkpt><trkpt lat="51.7204281595" lon="-2.0133093372"><ele>146.74</ele><time>2014-11-12T11:14:28Z</time></trkpt><trkpt lat="51.7204561550" lon="-2.0134597924"><ele>146.74</ele><time>2014-11-12T11:14:36Z</time></trkpt><trkpt lat="51.7204820551" lon="-2.0135105029"><ele>146.74</ele><time>2014-11-12T11:14:40Z</time></trkpt><trkpt lat="51.7204895150" lon="-2.0135680027"><ele>147.70</ele><time>2014-11-12T11:14:43Z</time></trkpt><trkpt lat="51.7205127329" lon="-2.0138720144"><ele>148.18</ele><time>2014-11-12T11:14:58Z</time></trkpt><trkpt lat="51.7205219530" lon="-2.0139425900"><ele>148.18</ele><time>2014-11-12T11:15:03Z</time></trkpt><trkpt lat="51.7205304187" lon="-2.0139951445"><ele>147.70</ele><time>2014-11-12T11:15:07Z</time></trkpt><trkpt lat="51.7205275688" lon="-2.0141958073"><ele>148.18</ele><time>2014-11-12T11:15:21Z</time></trkpt><trkpt lat="51.7205325142" lon="-2.0142683107"><ele>147.70</ele><time>2014-11-12T11:15:27Z</time></trkpt><trkpt lat="51.7205337714" lon="-2.0143114775"><ele>148.66</ele><time>2014-11-12T11:15:30Z</time></trkpt><trkpt lat="51.7205393035" lon="-2.0144078694"><ele>149.14</ele><time>2014-11-12T11:15:36Z</time></trkpt><trkpt lat="51.7205402255" lon="-2.0144829713"><ele>148.18</ele><time>2014-11-12T11:15:40Z</time></trkpt><trkpt lat="51.7205536366" lon="-2.0147010684"><ele>148.18</ele><time>2014-11-12T11:15:53Z</time></trkpt><trkpt lat="51.7205625214" lon="-2.0148526132"><ele>148.66</ele><time>2014-11-12T11:16:03Z</time></trkpt><trkpt lat="51.7205754295" lon="-2.0149255358"><ele>148.18</ele><time>2014-11-12T11:16:08Z</time></trkpt><trkpt lat="51.7206042632" lon="-2.0151141286"><ele>149.14</ele><time>2014-11-12T11:16:19Z</time></trkpt><trkpt lat="51.7206686363" lon="-2.0153434575"><ele>148.66</ele><time>2014-11-12T11:16:36Z</time></trkpt><trkpt lat="51.7207813729" lon="-2.0155226626"><ele>149.14</ele><time>2014-11-12T11:16:52Z</time></trkpt><trkpt lat="51.7209503520" lon="-2.0157282706"><ele>148.66</ele><time>2014-11-12T11:17:11Z</time></trkpt><trkpt lat="51.7210867256" lon="-2.0159112476"><ele>148.66</ele><time>2014-11-12T11:17:28Z</time></trkpt><trkpt lat="51.7211767472" lon="-2.0160169434"><ele>148.66</ele><time>2014-11-12T11:17:43Z</time></trkpt><trkpt lat="51.7212341633" lon="-2.0161343738"><ele>147.70</ele><time>2014-11-12T11:17:58Z</time></trkpt><trkpt lat="51.7212209199" lon="-2.0161933824"><ele>148.18</ele><time>2014-11-12T11:18:03Z</time></trkpt><trkpt lat="51.7212299723" lon="-2.0160855912"><ele>148.66</ele><time>2014-11-12T11:18:09Z</time></trkpt><trkpt lat="51.7212438025" lon="-2.0159860142"><ele>148.18</ele><time>2014-11-12T11:18:13Z</time></trkpt><trkpt lat="51.7213493306" lon="-2.0156968385"><ele>147.70</ele><time>2014-11-12T11:18:28Z</time></trkpt><trkpt lat="51.7213800922" lon="-2.0154940803"><ele>149.62</ele><time>2014-11-12T11:18:44Z</time></trkpt><trkpt lat="51.7214805074" lon="-2.0152782463"><ele>148.66</ele><time>2014-11-12T11:19:00Z</time></trkpt><trkpt lat="51.7215541843" lon="-2.0150666870"><ele>149.14</ele><time>2014-11-12T11:19:18Z</time></trkpt><trkpt lat="51.7216251791" lon="-2.0149417967"><ele>148.66</ele><time>2014-11-12T11:19:31Z</time></trkpt><trkpt lat="51.7216647416" lon="-2.0149002224"><ele>148.66</ele><time>2014-11-12T11:19:36Z</time></trkpt><trkpt lat="51.7217161227" lon="-2.0148449857"><ele>148.18</ele><time>2014-11-12T11:19:43Z</time></trkpt><trkpt lat="51.7217824236" lon="-2.0147272199"><ele>148.66</ele><time>2014-11-12T11:19:59Z</time></trkpt><trkpt lat="51.7218043003" lon="-2.0146943629"><ele>148.66</ele><time>2014-11-12T11:20:16Z</time></trkpt><trkpt lat="51.7218659073" lon="-2.0146624278"><ele>148.66</ele><time>2014-11-12T11:20:32Z</time></trkpt><trkpt lat="51.7218805756" lon="-2.0145731606"><ele>148.66</ele><time>2014-11-12T11:20:43Z</time></trkpt><trkpt lat="51.7219400033" lon="-2.0143973920"><ele>149.14</ele><time>2014-11-12T11:20:59Z</time></trkpt><trkpt lat="51.7220166977" lon="-2.0142802969"><ele>149.14</ele><time>2014-11-12T11:21:13Z</time></trkpt><trkpt lat="51.7221547477" lon="-2.0141461026"><ele>149.62</ele><time>2014-11-12T11:21:31Z</time></trkpt><trkpt lat="51.7221959867" lon="-2.0141108148"><ele>149.62</ele><time>2014-11-12T11:21:36Z</time></trkpt><trkpt lat="51.7222981621" lon="-2.0139434282"><ele>150.10</ele><time>2014-11-12T11:21:53Z</time></trkpt><trkpt lat="51.7222756986" lon="-2.0138841681"><ele>150.58</ele><time>2014-11-12T11:22:08Z</time></trkpt><trkpt lat="51.7222703341" lon="-2.0138180349"><ele>150.10</ele><time>2014-11-12T11:22:24Z</time></trkpt><trkpt lat="51.7222484574" lon="-2.0137707610"><ele>150.10</ele><time>2014-11-12T11:22:27Z</time></trkpt><trkpt lat="51.7222347949" lon="-2.0137430169"><ele>150.58</ele><time>2014-11-12T11:22:29Z</time></trkpt><trkpt lat="51.7222099844" lon="-2.0134327188"><ele>150.58</ele><time>2014-11-12T11:22:47Z</time></trkpt><trkpt lat="51.7222432606" lon="-2.0133588742"><ele>149.62</ele><time>2014-11-12T11:23:03Z</time></trkpt><trkpt lat="51.7222487926" lon="-2.0133780688"><ele>150.10</ele><time>2014-11-12T11:23:26Z</time></trkpt><trkpt lat="51.7222534865" lon="-2.0133515820"><ele>150.58</ele><time>2014-11-12T11:23:57Z</time></trkpt><trkpt lat="51.7222643830" lon="-2.0133128576"><ele>151.54</ele><time>2014-11-12T11:24:00Z</time></trkpt><trkpt lat="51.7222751118" lon="-2.0132825151"><ele>151.06</ele><time>2014-11-12T11:24:02Z</time></trkpt><trkpt lat="51.7222959828" lon="-2.0132309664"><ele>151.06</ele><time>2014-11-12T11:24:05Z</time></trkpt><trkpt lat="51.7224093899" lon="-2.0130137075"><ele>151.06</ele><time>2014-11-12T11:24:20Z</time></trkpt><trkpt lat="51.7224873416" lon="-2.0128496736"><ele>150.58</ele><time>2014-11-12T11:24:36Z</time></trkpt><trkpt lat="51.7225361243" lon="-2.0126920100"><ele>150.58</ele><time>2014-11-12T11:24:55Z</time></trkpt><trkpt lat="51.7226077057" lon="-2.0125375316"><ele>151.06</ele><time>2014-11-12T11:25:08Z</time></trkpt><trkpt lat="51.7226704862" lon="-2.0124025829"><ele>151.54</ele><time>2014-11-12T11:25:18Z</time></trkpt><trkpt lat="51.7227586638" lon="-2.0121130720"><ele>151.54</ele><time>2014-11-12T11:25:36Z</time></trkpt><trkpt lat="51.7227833066" lon="-2.0119852480"><ele>151.06</ele><time>2014-11-12T11:25:45Z</time></trkpt><trkpt lat="51.7228682991" lon="-2.0117510576"><ele>151.06</ele><time>2014-11-12T11:26:01Z</time></trkpt><trkpt lat="51.7229206860" lon="-2.0115719363"><ele>151.06</ele><time>2014-11-12T11:26:13Z</time></trkpt><trkpt lat="51.7229302414" lon="-2.0115416776"><ele>151.06</ele><time>2014-11-12T11:26:15Z</time></trkpt><trkpt lat="51.7230291478" lon="-2.0112954173"><ele>151.06</ele><time>2014-11-12T11:26:31Z</time></trkpt><trkpt lat="51.7230964545" lon="-2.0111130271"><ele>151.06</ele><time>2014-11-12T11:26:45Z</time></trkpt><trkpt lat="51.7231550440" lon="-2.0109499991"><ele>151.06</ele><time>2014-11-12T11:26:59Z</time></trkpt><trkpt lat="51.7231628392" lon="-2.0109040663"><ele>151.06</ele><time>2014-11-12T11:27:02Z</time></trkpt><trkpt lat="51.7231884040" lon="-2.0107820258"><ele>151.06</ele><time>2014-11-12T11:27:09Z</time></trkpt><trkpt lat="51.7232884001" lon="-2.0105809439"><ele>150.58</ele><time>2014-11-12T11:27:25Z</time></trkpt><trkpt lat="51.7233271245" lon="-2.0104936045"><ele>150.58</ele><time>2014-11-12T11:27:31Z</time></trkpt><trkpt lat="51.7234094348" lon="-2.0102866553"><ele>151.54</ele><time>2014-11-12T11:27:45Z</time></trkpt><trkpt lat="51.7234992050" lon="-2.0100802090"><ele>151.54</ele><time>2014-11-12T11:28:01Z</time></trkpt><trkpt lat="51.7235281225" lon="-2.0099576656"><ele>151.06</ele><time>2014-11-12T11:28:16Z</time></trkpt><trkpt lat="51.7235417850" lon="-2.0099157561"><ele>151.06</ele><time>2014-11-12T11:28:19Z</time></trkpt><trkpt lat="51.7236655019" lon="-2.0096975751"><ele>151.06</ele><time>2014-11-12T11:28:37Z</time></trkpt><trkpt lat="51.7237729579" lon="-2.0094765443"><ele>152.03</ele><time>2014-11-12T11:28:51Z</time></trkpt><trkpt lat="51.7238879576" lon="-2.0093006920"><ele>152.51</ele><time>2014-11-12T11:29:09Z</time></trkpt><trkpt lat="51.7239509057" lon="-2.0092451200"><ele>152.51</ele><time>2014-11-12T11:29:14Z</time></trkpt><trkpt lat="51.7240325455" lon="-2.0092103351"><ele>152.03</ele><time>2014-11-12T11:29:18Z</time></trkpt><trkpt lat="51.7241965793" lon="-2.0090158749"><ele>152.51</ele><time>2014-11-12T11:29:38Z</time></trkpt><trkpt lat="51.7241291888" lon="-2.0087317284"><ele>151.54</ele><time>2014-11-12T11:29:58Z</time></trkpt><trkpt lat="51.7239917256" lon="-2.0084243640"><ele>151.54</ele><time>2014-11-12T11:30:19Z</time></trkpt><trkpt lat="51.7238334753" lon="-2.0080505311"><ele>151.06</ele><time>2014-11-12T11:30:37Z</time></trkpt><trkpt lat="51.7236877140" lon="-2.0076737646"><ele>151.06</ele><time>2014-11-12T11:30:59Z</time></trkpt><trkpt lat="51.7235679366" lon="-2.0074333716"><ele>150.58</ele><time>2014-11-12T11:31:17Z</time></trkpt><trkpt lat="51.7234188225" lon="-2.0071527455"><ele>150.58</ele><time>2014-11-12T11:31:36Z</time></trkpt><trkpt lat="51.7233316507" lon="-2.0068990253"><ele>150.10</ele><time>2014-11-12T11:31:54Z</time></trkpt><trkpt lat="51.7231798545" lon="-2.0065543614"><ele>149.62</ele><time>2014-11-12T11:32:15Z</time></trkpt><trkpt lat="51.7230687104" lon="-2.0063168183"><ele>149.62</ele><time>2014-11-12T11:32:35Z</time></trkpt><trkpt lat="51.7229542136" lon="-2.0060230326"><ele>149.14</ele><time>2014-11-12T11:32:56Z</time></trkpt><trkpt lat="51.7227825522" lon="-2.0057797898"><ele>149.14</ele><time>2014-11-12T11:33:15Z</time></trkpt><trkpt lat="51.7225917801" lon="-2.0057282411"><ele>148.66</ele><time>2014-11-12T11:33:34Z</time></trkpt><trkpt lat="51.7224931251" lon="-2.0056468528"><ele>149.14</ele><time>2014-11-12T11:33:53Z</time></trkpt><trkpt lat="51.7223150935" lon="-2.0054807235"><ele>148.18</ele><time>2014-11-12T11:34:12Z</time></trkpt><trkpt lat="51.7221503053" lon="-2.0054216310"><ele>148.66</ele><time>2014-11-12T11:34:25Z</time></trkpt><trkpt lat="51.7220249958" lon="-2.0053591859"><ele>148.66</ele><time>2014-11-12T11:34:40Z</time></trkpt><trkpt lat="51.7218313739" lon="-2.0051659830"><ele>147.22</ele><time>2014-11-12T11:35:01Z</time></trkpt><trkpt lat="51.7216494028" lon="-2.0050155278"><ele>146.74</ele><time>2014-11-12T11:35:19Z</time></trkpt><trkpt lat="51.7216261849" lon="-2.0048639830"><ele>147.22</ele><time>2014-11-12T11:35:41Z</time></trkpt><trkpt lat="51.7214780767" lon="-2.0045538526"><ele>146.74</ele><time>2014-11-12T11:36:01Z</time></trkpt><trkpt lat="51.7213375960" lon="-2.0042901579"><ele>146.74</ele><time>2014-11-12T11:36:19Z</time></trkpt><trkpt lat="51.7211640906" lon="-2.0039251260"><ele>145.30</ele><time>2014-11-12T11:36:40Z</time></trkpt><trkpt lat="51.7211486679" lon="-2.0038873237"><ele>145.78</ele><time>2014-11-12T11:37:01Z</time></trkpt><trkpt lat="51.7211371008" lon="-2.0038305782"><ele>145.30</ele><time>2014-11-12T11:37:26Z</time></trkpt><trkpt lat="51.7210223526" lon="-2.0035957173"><ele>145.30</ele><time>2014-11-12T11:37:45Z</time></trkpt><trkpt lat="51.7209692113" lon="-2.0034730900"><ele>144.34</ele><time>2014-11-12T11:37:52Z</time></trkpt><trkpt lat="51.7209389526" lon="-2.0033770334"><ele>149.14</ele><time>2014-11-12T11:37:55Z</time></trkpt><trkpt lat="51.7209300678" lon="-2.0033511333"><ele>144.82</ele><time>2014-11-12T11:37:56Z</time></trkpt><trkpt lat="51.7208325863" lon="-2.0029568486"><ele>144.34</ele><time>2014-11-12T11:38:12Z</time></trkpt><trkpt lat="51.7207668722" lon="-2.0027224906"><ele>143.85</ele><time>2014-11-12T11:38:27Z</time></trkpt><trkpt lat="51.7206939496" lon="-2.0024880487"><ele>143.85</ele><time>2014-11-12T11:38:39Z</time></trkpt><trkpt lat="51.7206527945" lon="-2.0021401998"><ele>143.85</ele><time>2014-11-12T11:38:59Z</time></trkpt><trkpt lat="51.7206408922" lon="-2.0017714798"><ele>144.34</ele><time>2014-11-12T11:39:19Z</time></trkpt><trkpt lat="51.7206213623" lon="-2.0013391413"><ele>142.89</ele><time>2014-11-12T11:39:37Z</time></trkpt><trkpt lat="51.7205965519" lon="-2.0010462776"><ele>142.89</ele><time>2014-11-12T11:39:54Z</time></trkpt><trkpt lat="51.7205799557" lon="-2.0006964169"><ele>142.89</ele><time>2014-11-12T11:40:13Z</time></trkpt><trkpt lat="51.7205631919" lon="-2.0003318042"><ele>142.41</ele><time>2014-11-12T11:40:32Z</time></trkpt><trkpt lat="51.7204991542" lon="-2.0000367612"><ele>141.93</ele><time>2014-11-12T11:40:49Z</time></trkpt><trkpt lat="51.7204657942" lon="-1.9997573923"><ele>141.45</ele><time>2014-11-12T11:41:07Z</time></trkpt><trkpt lat="51.7204230465" lon="-1.9995216932"><ele>141.45</ele><time>2014-11-12T11:41:25Z</time></trkpt><trkpt lat="51.7203300074" lon="-1.9992564898"><ele>140.01</ele><time>2014-11-12T11:41:44Z</time></trkpt><trkpt lat="51.7202688195" lon="-1.9989777077"><ele>140.97</ele><time>2014-11-12T11:42:07Z</time></trkpt><trkpt lat="51.7201742716" lon="-1.9987128396"><ele>140.97</ele><time>2014-11-12T11:42:25Z</time></trkpt><trkpt lat="51.7200790532" lon="-1.9983544294"><ele>140.97</ele><time>2014-11-12T11:42:46Z</time></trkpt><trkpt lat="51.7200118303" lon="-1.9980644993"><ele>140.01</ele><time>2014-11-12T11:43:07Z</time></trkpt><trkpt lat="51.7199972458" lon="-1.9978402834"><ele>140.49</ele><time>2014-11-12T11:43:29Z</time></trkpt><trkpt lat="51.7199750338" lon="-1.9975034148"><ele>140.01</ele><time>2014-11-12T11:43:49Z</time></trkpt><trkpt lat="51.7199563421" lon="-1.9971887581"><ele>140.49</ele><time>2014-11-12T11:44:10Z</time></trkpt><trkpt lat="51.7199622095" lon="-1.9968591817"><ele>140.49</ele><time>2014-11-12T11:44:31Z</time></trkpt><trkpt lat="51.7199301906" lon="-1.9964695908"><ele>140.49</ele><time>2014-11-12T11:44:54Z</time></trkpt><trkpt lat="51.7198848445" lon="-1.9961916469"><ele>140.01</ele><time>2014-11-12T11:45:12Z</time></trkpt><trkpt lat="51.7198165320" lon="-1.9959147088"><ele>139.53</ele><time>2014-11-12T11:45:32Z</time></trkpt><trkpt lat="51.7197669949" lon="-1.9955412950"><ele>139.53</ele><time>2014-11-12T11:45:53Z</time></trkpt><trkpt lat="51.7197200563" lon="-1.9952540472"><ele>139.53</ele><time>2014-11-12T11:46:14Z</time></trkpt><trkpt lat="51.7197027057" lon="-1.9949235488"><ele>139.05</ele><time>2014-11-12T11:46:34Z</time></trkpt><trkpt lat="51.7196538392" lon="-1.9945516437"><ele>138.57</ele><time>2014-11-12T11:46:56Z</time></trkpt><trkpt lat="51.7196893785" lon="-1.9944166113"><ele>139.05</ele><time>2014-11-12T11:47:17Z</time></trkpt><trkpt lat="51.7196737044" lon="-1.9939637370"><ele>138.09</ele><time>2014-11-12T11:47:39Z</time></trkpt><trkpt lat="51.7196126841" lon="-1.9936882239"><ele>137.61</ele><time>2014-11-12T11:47:59Z</time></trkpt><trkpt lat="51.7195365764" lon="-1.9933080208"><ele>137.13</ele><time>2014-11-12T11:48:19Z</time></trkpt><trkpt lat="51.7194580380" lon="-1.9930063561"><ele>137.13</ele><time>2014-11-12T11:48:38Z</time></trkpt><trkpt lat="51.7194669228" lon="-1.9928149972"><ele>137.61</ele><time>2014-11-12T11:48:58Z</time></trkpt><trkpt lat="51.7197013646" lon="-1.9927936234"><ele>137.13</ele><time>2014-11-12T11:49:20Z</time></trkpt><trkpt lat="51.7198931426" lon="-1.9925860874"><ele>136.16</ele><time>2014-11-12T11:49:41Z</time></trkpt><trkpt lat="51.7199342139" lon="-1.9922653958"><ele>136.16</ele><time>2014-11-12T11:50:03Z</time></trkpt><trkpt lat="51.7199032847" lon="-1.9919838477"><ele>136.16</ele><time>2014-11-12T11:50:23Z</time></trkpt><trkpt lat="51.7198785581" lon="-1.9917424489"><ele>135.68</ele><time>2014-11-12T11:50:40Z</time></trkpt><trkpt lat="51.7198617943" lon="-1.9914889801"><ele>135.20</ele><time>2014-11-12T11:50:58Z</time></trkpt><trkpt lat="51.7198432703" lon="-1.9913403690"><ele>134.72</ele><time>2014-11-12T11:51:16Z</time></trkpt><trkpt lat="51.7198461201" lon="-1.9911538716"><ele>134.24</ele><time>2014-11-12T11:51:35Z</time></trkpt><trkpt lat="51.7198278476" lon="-1.9908388797"><ele>133.76</ele><time>2014-11-12T11:51:53Z</time></trkpt><trkpt lat="51.7198528256" lon="-1.9906129036"><ele>133.76</ele><time>2014-11-12T11:52:13Z</time></trkpt><trkpt lat="51.7198635545" lon="-1.9906141609"><ele>133.76</ele><time>2014-11-12T11:52:35Z</time></trkpt><trkpt lat="51.7198502272" lon="-1.9905264862"><ele>132.80</ele><time>2014-11-12T11:52:56Z</time></trkpt><trkpt lat="51.7198398337" lon="-1.9902125839"><ele>132.80</ele><time>2014-11-12T11:53:15Z</time></trkpt><trkpt lat="51.7198525742" lon="-1.9899311196"><ele>131.36</ele><time>2014-11-12T11:53:34Z</time></trkpt><trkpt lat="51.7197990138" lon="-1.9895630702"><ele>130.88</ele><time>2014-11-12T11:53:53Z</time></trkpt><trkpt lat="51.7197767179" lon="-1.9892835338"><ele>131.36</ele><time>2014-11-12T11:54:12Z</time></trkpt><trkpt lat="51.7197915539" lon="-1.9890058413"><ele>130.40</ele><time>2014-11-12T11:54:32Z</time></trkpt><trkpt lat="51.7197394185" lon="-1.9886373729"><ele>129.92</ele><time>2014-11-12T11:54:53Z</time></trkpt><trkpt lat="51.7197563499" lon="-1.9883709121"><ele>129.43</ele><time>2014-11-12T11:55:10Z</time></trkpt><trkpt lat="51.7197634745" lon="-1.9880513940"><ele>129.43</ele><time>2014-11-12T11:55:30Z</time></trkpt><trkpt lat="51.7197207268" lon="-1.9877334684"><ele>129.92</ele><time>2014-11-12T11:55:51Z</time></trkpt><trkpt lat="51.7197337188" lon="-1.9874224160"><ele>128.47</ele><time>2014-11-12T11:56:09Z</time></trkpt><trkpt lat="51.7197033763" lon="-1.9871484116"><ele>128.95</ele><time>2014-11-12T11:56:26Z</time></trkpt><trkpt lat="51.7196667474" lon="-1.9867518637"><ele>127.99</ele><time>2014-11-12T11:56:48Z</time></trkpt><trkpt lat="51.7196635623" lon="-1.9864470977"><ele>127.51</ele><time>2014-11-12T11:57:08Z</time></trkpt><trkpt lat="51.7196649872" lon="-1.9860455208"><ele>126.55</ele><time>2014-11-12T11:57:31Z</time></trkpt><trkpt lat="51.7196786497" lon="-1.9857591111"><ele>126.55</ele><time>2014-11-12T11:57:50Z</time></trkpt><trkpt lat="51.7196198925" lon="-1.9853918999"><ele>126.07</ele><time>2014-11-12T11:58:11Z</time></trkpt><trkpt lat="51.7196135223" lon="-1.9850416202"><ele>124.63</ele><time>2014-11-12T11:58:31Z</time></trkpt><trkpt lat="51.7195719481" lon="-1.9846449886"><ele>124.15</ele><time>2014-11-12T11:58:54Z</time></trkpt><trkpt lat="51.7195708584" lon="-1.9843169209"><ele>123.19</ele><time>2014-11-12T11:59:12Z</time></trkpt><trkpt lat="51.7195512448" lon="-1.9840507954"><ele>122.71</ele><time>2014-11-12T11:59:31Z</time></trkpt><trkpt lat="51.7195002828" lon="-1.9836590253"><ele>122.22</ele><time>2014-11-12T11:59:53Z</time></trkpt><trkpt lat="51.7195247579" lon="-1.9833316281"><ele>121.74</ele><time>2014-11-12T12:00:14Z</time></trkpt><trkpt lat="51.7195028812" lon="-1.9830225874"><ele>121.74</ele><time>2014-11-12T12:00:33Z</time></trkpt><trkpt lat="51.7195291165" lon="-1.9826778397"><ele>120.78</ele><time>2014-11-12T12:00:53Z</time></trkpt><trkpt lat="51.7195468862" lon="-1.9823098741"><ele>119.82</ele><time>2014-11-12T12:01:15Z</time></trkpt><trkpt lat="51.7195598781" lon="-1.9820193574"><ele>119.34</ele><time>2014-11-12T12:01:33Z</time></trkpt><trkpt lat="51.7196079902" lon="-1.9816396572"><ele>118.38</ele><time>2014-11-12T12:01:56Z</time></trkpt><trkpt lat="51.7196727823" lon="-1.9812823366"><ele>117.90</ele><time>2014-11-12T12:02:19Z</time></trkpt><trkpt lat="51.7195622250" lon="-1.9810998626"><ele>115.98</ele><time>2014-11-12T12:02:36Z</time></trkpt><trkpt lat="51.7194180563" lon="-1.9807594735"><ele>113.09</ele><time>2014-11-12T12:02:57Z</time></trkpt><trkpt lat="51.7193791643" lon="-1.9804546237"><ele>113.57</ele><time>2014-11-12T12:03:15Z</time></trkpt><trkpt lat="51.7192627396" lon="-1.9801646937"><ele>112.13</ele><time>2014-11-12T12:03:36Z</time></trkpt><trkpt lat="51.7191749811" lon="-1.9799129851"><ele>112.13</ele><time>2014-11-12T12:03:55Z</time></trkpt><trkpt lat="51.7190984543" lon="-1.9796575047"><ele>110.69</ele><time>2014-11-12T12:04:14Z</time></trkpt><trkpt lat="51.7189864721" lon="-1.9793327898"><ele>110.69</ele><time>2014-11-12T12:04:33Z</time></trkpt><trkpt lat="51.7188909184" lon="-1.9790530857"><ele>110.69</ele><time>2014-11-12T12:04:51Z</time></trkpt><trkpt lat="51.7187739909" lon="-1.9788508303"><ele>111.17</ele><time>2014-11-12T12:05:11Z</time></trkpt><trkpt lat="51.7187545449" lon="-1.9786805939"><ele>111.65</ele><time>2014-11-12T12:05:29Z</time></trkpt><trkpt lat="51.7187105399" lon="-1.9785971101"><ele>110.69</ele><time>2014-11-12T12:05:35Z</time></trkpt><trkpt lat="51.7186494358" lon="-1.9785281271"><ele>112.61</ele><time>2014-11-12T12:05:39Z</time></trkpt><trkpt lat="51.7186086159" lon="-1.9785873871"><ele>111.17</ele><time>2014-11-12T12:05:59Z</time></trkpt><trkpt lat="51.7186029162" lon="-1.9785101060"><ele>110.69</ele><time>2014-11-12T12:06:21Z</time></trkpt><trkpt lat="51.7186314985" lon="-1.9783214293"><ele>110.21</ele><time>2014-11-12T12:06:40Z</time></trkpt><trkpt lat="51.7186131421" lon="-1.9782495964"><ele>110.69</ele><time>2014-11-12T12:06:43Z</time></trkpt><trkpt lat="51.7184776906" lon="-1.9778588321"><ele>110.21</ele><time>2014-11-12T12:07:02Z</time></trkpt><trkpt lat="51.7184009962" lon="-1.9776041061"><ele>111.65</ele><time>2014-11-12T12:07:18Z</time></trkpt><trkpt lat="51.7182962224" lon="-1.9774325285"><ele>111.65</ele><time>2014-11-12T12:07:37Z</time></trkpt><trkpt lat="51.7181851622" lon="-1.9771755394"><ele>111.17</ele><time>2014-11-12T12:07:53Z</time></trkpt><trkpt lat="51.7181157600" lon="-1.9768923987"><ele>111.17</ele><time>2014-11-12T12:08:10Z</time></trkpt><trkpt lat="51.7180432566" lon="-1.9765629899"><ele>111.65</ele><time>2014-11-12T12:08:30Z</time></trkpt><trkpt lat="51.7179791350" lon="-1.9762843754"><ele>111.17</ele><time>2014-11-12T12:08:49Z</time></trkpt><trkpt lat="51.7179706693" lon="-1.9759869855"><ele>111.17</ele><time>2014-11-12T12:09:06Z</time></trkpt><trkpt lat="51.7179415002" lon="-1.9756832253"><ele>111.17</ele><time>2014-11-12T12:09:23Z</time></trkpt><trkpt lat="51.7179346271" lon="-1.9753597677"><ele>110.69</ele><time>2014-11-12T12:09:42Z</time></trkpt><trkpt lat="51.7179355491" lon="-1.9750755373"><ele>110.69</ele><time>2014-11-12T12:10:00Z</time></trkpt><trkpt lat="51.7179301009" lon="-1.9750782195"><ele>110.69</ele><time>2014-11-12T12:10:24Z</time></trkpt><trkpt lat="51.7179383151" lon="-1.9750216417"><ele>110.69</ele><time>2014-11-12T12:10:33Z</time></trkpt><trkpt lat="51.7179605272" lon="-1.9747140259"><ele>110.69</ele><time>2014-11-12T12:10:50Z</time></trkpt><trkpt lat="51.7179800570" lon="-1.9744782429"><ele>110.21</ele><time>2014-11-12T12:11:09Z</time></trkpt><trkpt lat="51.7179836612" lon="-1.9744738843"><ele>110.69</ele><time>2014-11-12T12:11:35Z</time></trkpt><trkpt lat="51.7179876007" lon="-1.9744002912"><ele>110.21</ele><time>2014-11-12T12:11:56Z</time></trkpt><trkpt lat="51.7180292588" lon="-1.9741049130"><ele>109.25</ele><time>2014-11-12T12:12:16Z</time></trkpt><trkpt lat="51.7180119921" lon="-1.9739861414"><ele>109.73</ele><time>2014-11-12T12:12:36Z</time></trkpt><trkpt lat="51.7179896124" lon="-1.9740167353"><ele>110.21</ele><time>2014-11-12T12:12:55Z</time></trkpt><trkpt lat="51.7180234753" lon="-1.9738233648"><ele>109.73</ele><time>2014-11-12T12:13:13Z</time></trkpt><trkpt lat="51.7180258222" lon="-1.9736243784"><ele>109.25</ele><time>2014-11-12T12:13:26Z</time></trkpt><trkpt lat="51.7180501297" lon="-1.9734797906"><ele>108.77</ele><time>2014-11-12T12:13:42Z</time></trkpt><trkpt lat="51.7180315219" lon="-1.9732780382"><ele>108.77</ele><time>2014-11-12T12:13:57Z</time></trkpt><trkpt lat="51.7179927137" lon="-1.9729250763"><ele>107.81</ele><time>2014-11-12T12:14:20Z</time></trkpt><trkpt lat="51.7179815657" lon="-1.9727808237"><ele>107.32</ele><time>2014-11-12T12:14:37Z</time></trkpt><trkpt lat="51.7179691605" lon="-1.9727226533"><ele>106.84</ele><time>2014-11-12T12:14:41Z</time></trkpt><trkpt lat="51.7180198710" lon="-1.9724055659"><ele>106.84</ele><time>2014-11-12T12:14:58Z</time></trkpt><trkpt lat="51.7181619443" lon="-1.9723490719"><ele>105.88</ele><time>2014-11-12T12:15:14Z</time></trkpt><trkpt lat="51.7183129862" lon="-1.9722665939"><ele>105.40</ele><time>2014-11-12T12:15:31Z</time></trkpt><trkpt lat="51.7185232881" lon="-1.9722266961"><ele>105.40</ele><time>2014-11-12T12:15:51Z</time></trkpt><trkpt lat="51.7187113781" lon="-1.9721272867"><ele>105.88</ele><time>2014-11-12T12:16:10Z</time></trkpt><trkpt lat="51.7187700514" lon="-1.9720375165"><ele>105.88</ele><time>2014-11-12T12:16:18Z</time></trkpt><trkpt lat="51.7189311516" lon="-1.9717833772"><ele>105.40</ele><time>2014-11-12T12:16:38Z</time></trkpt><trkpt lat="51.7189979553" lon="-1.9715611730"><ele>106.36</ele><time>2014-11-12T12:16:56Z</time></trkpt><trkpt lat="51.7190428823" lon="-1.9714767672"><ele>103.00</ele><time>2014-11-12T12:17:04Z</time></trkpt><trkpt lat="51.7191143800" lon="-1.9712517131"><ele>106.36</ele><time>2014-11-12T12:17:21Z</time></trkpt><trkpt lat="51.7192451376" lon="-1.9709783792"><ele>105.40</ele><time>2014-11-12T12:17:38Z</time></trkpt><trkpt lat="51.7193141207" lon="-1.9707064703"><ele>105.88</ele><time>2014-11-12T12:17:57Z</time></trkpt><trkpt lat="51.7193198204" lon="-1.9706961606"><ele>105.40</ele><time>2014-11-12T12:17:58Z</time></trkpt><trkpt lat="51.7194061540" lon="-1.9705550093"><ele>105.40</ele><time>2014-11-12T12:18:11Z</time></trkpt><trkpt lat="51.7195307929" lon="-1.9704442844"><ele>104.92</ele><time>2014-11-12T12:18:29Z</time></trkpt><trkpt lat="51.7196766380" lon="-1.9705376588"><ele>105.40</ele><time>2014-11-12T12:18:43Z</time></trkpt><trkpt lat="51.7197462916" lon="-1.9704356510"><ele>106.36</ele><time>2014-11-12T12:18:57Z</time></trkpt><trkpt lat="51.7197497282" lon="-1.9704224076"><ele>105.88</ele><time>2014-11-12T12:18:58Z</time></trkpt><trkpt lat="51.7197773885" lon="-1.9703247584"><ele>105.88</ele><time>2014-11-12T12:19:03Z</time></trkpt><trkpt lat="51.7198357265" lon="-1.9701681007"><ele>105.88</ele><time>2014-11-12T12:19:12Z</time></trkpt><trkpt lat="51.7200091481" lon="-1.9699794240"><ele>105.40</ele><time>2014-11-12T12:19:31Z</time></trkpt><trkpt lat="51.7201385647" lon="-1.9697920885"><ele>105.40</ele><time>2014-11-12T12:19:48Z</time></trkpt><trkpt lat="51.7201478686" lon="-1.9697223511"><ele>105.40</ele><time>2014-11-12T12:19:53Z</time></trkpt><trkpt lat="51.7202423327" lon="-1.9696361851"><ele>104.92</ele><time>2014-11-12T12:20:01Z</time></trkpt><trkpt lat="51.7204131559" lon="-1.9694270566"><ele>105.40</ele><time>2014-11-12T12:20:22Z</time></trkpt><trkpt lat="51.7204798758" lon="-1.9692915212"><ele>104.92</ele><time>2014-11-12T12:20:39Z</time></trkpt><trkpt lat="51.7205943726" lon="-1.9692508690"><ele>104.92</ele><time>2014-11-12T12:20:53Z</time></trkpt><trkpt lat="51.7206706479" lon="-1.9695985503"><ele>105.40</ele><time>2014-11-12T12:21:08Z</time></trkpt><trkpt lat="51.7207967117" lon="-1.9698276278"><ele>105.40</ele><time>2014-11-12T12:21:24Z</time></trkpt><trkpt lat="51.7207953706" lon="-1.9699554518"><ele>104.92</ele><time>2014-11-12T12:21:36Z</time></trkpt><trkpt lat="51.7206928600" lon="-1.9700819347"><ele>105.40</ele><time>2014-11-12T12:21:51Z</time></trkpt><trkpt lat="51.7206986435" lon="-1.9701106846"><ele>104.92</ele><time>2014-11-12T12:22:06Z</time></trkpt><trkpt lat="51.7207061034" lon="-1.9701071642"><ele>105.88</ele><time>2014-11-12T12:22:26Z</time></trkpt></trkseg></trk></gpx>